sensor_id;sensor_type;location;lat;lon;timestamp;P1;durP1;ratioP1;P2;durP2;ratioP2
22881;SDS011;11608;50.894;5.296;2022-12-11T00:01:11;45.13;;;37.67;;
22881;SDS011;11608;50.894;5.296;2022-12-11T00:03:38;51.10;;;39.27;;
22881;SDS011;11608;50.894;5.296;2022-12-11T00:06:05;46.80;;;37.93;;
22881;SDS011;11608;50.894;5.296;2022-12-11T00:08:34;48.90;;;39.50;;
22881;SDS011;11608;50.894;5.296;2022-12-11T00:11:00;47.57;;;38.00;;
22881;SDS011;11608;50.894;5.296;2022-12-11T00:13:26;43.40;;;37.00;;
22881;SDS011;11608;50.894;5.296;2022-12-11T00:15:52;45.37;;;37.50;;
22881;SDS011;11608;50.894;5.296;2022-12-11T00:18:19;48.23;;;38.50;;
22881;SDS011;11608;50.894;5.296;2022-12-11T00:20:45;45.93;;;37.70;;
22881;SDS011;11608;50.894;5.296;2022-12-11T00:23:11;44.03;;;38.57;;
22881;SDS011;11608;50.894;5.296;2022-12-11T00:25:43;46.30;;;38.50;;
22881;SDS011;11608;50.894;5.296;2022-12-11T00:28:10;44.20;;;36.60;;
22881;SDS011;11608;50.894;5.296;2022-12-11T00:30:39;47.27;;;39.10;;
22881;SDS011;11608;50.894;5.296;2022-12-11T00:33:08;46.93;;;38.33;;
22881;SDS011;11608;50.894;5.296;2022-12-11T00:35:41;47.67;;;38.00;;
22881;SDS011;11608;50.894;5.296;2022-12-11T00:38:08;48.20;;;38.07;;
22881;SDS011;11608;50.894;5.296;2022-12-11T00:40:34;40.13;;;35.87;;
22881;SDS011;11608;50.894;5.296;2022-12-11T00:43:01;51.93;;;37.83;;
22881;SDS011;11608;50.894;5.296;2022-12-11T00:45:27;46.20;;;37.80;;
22881;SDS011;11608;50.894;5.296;2022-12-11T00:47:53;43.03;;;37.50;;
22881;SDS011;11608;50.894;5.296;2022-12-11T00:50:22;44.20;;;37.67;;
22881;SDS011;11608;50.894;5.296;2022-12-11T00:52:48;45.63;;;37.63;;
22881;SDS011;11608;50.894;5.296;2022-12-11T00:55:14;41.33;;;36.87;;
22881;SDS011;11608;50.894;5.296;2022-12-11T00:57:40;42.53;;;37.87;;
22881;SDS011;11608;50.894;5.296;2022-12-11T01:00:06;46.00;;;36.33;;
22881;SDS011;11608;50.894;5.296;2022-12-11T01:02:32;46.47;;;38.60;;
22881;SDS011;11608;50.894;5.296;2022-12-11T01:04:58;44.77;;;37.43;;
22881;SDS011;11608;50.894;5.296;2022-12-11T01:07:24;43.23;;;38.57;;
22881;SDS011;11608;50.894;5.296;2022-12-11T01:09:50;45.83;;;37.13;;
22881;SDS011;11608;50.894;5.296;2022-12-11T01:12:35;42.50;;;37.80;;
22881;SDS011;11608;50.894;5.296;2022-12-11T01:15:01;43.17;;;37.10;;
22881;SDS011;11608;50.894;5.296;2022-12-11T01:17:27;42.50;;;36.73;;
22881;SDS011;11608;50.894;5.296;2022-12-11T01:19:53;46.70;;;38.03;;
22881;SDS011;11608;50.894;5.296;2022-12-11T01:22:19;45.63;;;36.63;;
22881;SDS011;11608;50.894;5.296;2022-12-11T01:24:46;42.07;;;37.53;;
22881;SDS011;11608;50.894;5.296;2022-12-11T01:27:12;41.37;;;36.97;;
22881;SDS011;11608;50.894;5.296;2022-12-11T01:29:38;40.67;;;36.30;;
22881;SDS011;11608;50.894;5.296;2022-12-11T01:32:04;41.17;;;36.77;;
22881;SDS011;11608;50.894;5.296;2022-12-11T01:34:30;46.80;;;37.40;;
22881;SDS011;11608;50.894;5.296;2022-12-11T01:36:59;39.30;;;35.07;;
22881;SDS011;11608;50.894;5.296;2022-12-11T01:39:25;39.00;;;34.70;;
22881;SDS011;11608;50.894;5.296;2022-12-11T01:41:55;38.37;;;34.20;;
22881;SDS011;11608;50.894;5.296;2022-12-11T01:46:47;37.73;;;33.73;;
22881;SDS011;11608;50.894;5.296;2022-12-11T01:49:16;40.13;;;33.53;;
22881;SDS011;11608;50.894;5.296;2022-12-11T01:51:46;36.53;;;32.67;;
22881;SDS011;11608;50.894;5.296;2022-12-11T01:54:12;35.67;;;32.27;;
22881;SDS011;11608;50.894;5.296;2022-12-11T01:56:42;41.10;;;34.30;;
22881;SDS011;11608;50.894;5.296;2022-12-11T01:59:09;36.70;;;33.00;;
22881;SDS011;11608;50.894;5.296;2022-12-11T02:01:38;37.07;;;33.17;;
22881;SDS011;11608;50.894;5.296;2022-12-11T02:04:05;38.80;;;34.80;;
22881;SDS011;11608;50.894;5.296;2022-12-11T02:06:37;37.33;;;33.50;;
22881;SDS011;11608;50.894;5.296;2022-12-11T02:09:04;36.90;;;32.50;;
22881;SDS011;11608;50.894;5.296;2022-12-11T02:11:34;37.60;;;33.83;;
22881;SDS011;11608;50.894;5.296;2022-12-11T02:14:04;38.83;;;34.53;;
22881;SDS011;11608;50.894;5.296;2022-12-11T02:16:34;39.73;;;35.63;;
22881;SDS011;11608;50.894;5.296;2022-12-11T02:21:49;37.50;;;33.67;;
22881;SDS011;11608;50.894;5.296;2022-12-11T02:29:28;39.27;;;33.83;;
22881;SDS011;11608;50.894;5.296;2022-12-11T02:31:57;38.30;;;34.73;;
22881;SDS011;11608;50.894;5.296;2022-12-11T02:34:39;36.63;;;32.97;;
22881;SDS011;11608;50.894;5.296;2022-12-11T02:37:08;37.53;;;33.70;;
22881;SDS011;11608;50.894;5.296;2022-12-11T02:39:37;38.67;;;34.57;;
22881;SDS011;11608;50.894;5.296;2022-12-11T02:42:03;38.27;;;34.27;;
22881;SDS011;11608;50.894;5.296;2022-12-11T02:44:31;37.03;;;33.30;;
22881;SDS011;11608;50.894;5.296;2022-12-11T02:46:59;37.37;;;33.83;;
22881;SDS011;11608;50.894;5.296;2022-12-11T02:49:25;35.73;;;32.27;;
22881;SDS011;11608;50.894;5.296;2022-12-11T02:51:52;39.27;;;34.40;;
22881;SDS011;11608;50.894;5.296;2022-12-11T02:54:24;36.93;;;33.13;;
22881;SDS011;11608;50.894;5.296;2022-12-11T02:56:59;36.10;;;32.53;;
22881;SDS011;11608;50.894;5.296;2022-12-11T02:59:33;38.20;;;33.57;;
22881;SDS011;11608;50.894;5.296;2022-12-11T03:02:00;39.50;;;34.50;;
22881;SDS011;11608;50.894;5.296;2022-12-11T03:04:26;37.50;;;33.73;;
22881;SDS011;11608;50.894;5.296;2022-12-11T03:06:53;38.60;;;34.73;;
22881;SDS011;11608;50.894;5.296;2022-12-11T03:09:26;40.40;;;35.40;;
22881;SDS011;11608;50.894;5.296;2022-12-11T03:11:53;38.77;;;35.00;;
22881;SDS011;11608;50.894;5.296;2022-12-11T03:14:19;38.67;;;34.97;;
22881;SDS011;11608;50.894;5.296;2022-12-11T03:16:54;41.97;;;35.50;;
22881;SDS011;11608;50.894;5.296;2022-12-11T03:19:27;39.40;;;35.23;;
22881;SDS011;11608;50.894;5.296;2022-12-11T03:24:29;37.83;;;33.90;;
22881;SDS011;11608;50.894;5.296;2022-12-11T03:27:05;39.73;;;35.63;;
22881;SDS011;11608;50.894;5.296;2022-12-11T03:29:36;37.77;;;33.80;;
22881;SDS011;11608;50.894;5.296;2022-12-11T03:32:08;38.63;;;34.73;;
22881;SDS011;11608;50.894;5.296;2022-12-11T03:37:01;39.70;;;35.47;;
22881;SDS011;11608;50.894;5.296;2022-12-11T03:39:32;40.77;;;36.67;;
22881;SDS011;11608;50.894;5.296;2022-12-11T03:42:00;38.97;;;34.83;;
22881;SDS011;11608;50.894;5.296;2022-12-11T03:44:27;38.90;;;35.10;;
22881;SDS011;11608;50.894;5.296;2022-12-11T03:46:54;38.97;;;34.97;;
22881;SDS011;11608;50.894;5.296;2022-12-11T03:49:23;38.23;;;34.30;;
22881;SDS011;11608;50.894;5.296;2022-12-11T03:51:52;37.13;;;33.33;;
22881;SDS011;11608;50.894;5.296;2022-12-11T03:54:19;39.03;;;35.10;;
22881;SDS011;11608;50.894;5.296;2022-12-11T03:56:46;38.93;;;35.07;;
22881;SDS011;11608;50.894;5.296;2022-12-11T03:59:12;38.60;;;34.80;;
22881;SDS011;11608;50.894;5.296;2022-12-11T04:01:39;40.40;;;35.90;;
22881;SDS011;11608;50.894;5.296;2022-12-11T04:04:05;40.50;;;36.37;;
22881;SDS011;11608;50.894;5.296;2022-12-11T04:06:31;38.10;;;34.17;;
22881;SDS011;11608;50.894;5.296;2022-12-11T04:08:59;40.20;;;36.10;;
22881;SDS011;11608;50.894;5.296;2022-12-11T04:11:25;40.50;;;36.47;;
22881;SDS011;11608;50.894;5.296;2022-12-11T04:14:03;40.90;;;36.90;;
22881;SDS011;11608;50.894;5.296;2022-12-11T04:16:48;39.50;;;35.80;;
22881;SDS011;11608;50.894;5.296;2022-12-11T04:19:15;41.30;;;37.13;;
22881;SDS011;11608;50.894;5.296;2022-12-11T04:22:00;40.27;;;36.27;;
22881;SDS011;11608;50.894;5.296;2022-12-11T04:24:46;41.17;;;36.93;;
22881;SDS011;11608;50.894;5.296;2022-12-11T04:27:13;41.00;;;36.53;;
22881;SDS011;11608;50.894;5.296;2022-12-11T04:29:59;38.83;;;34.93;;
22881;SDS011;11608;50.894;5.296;2022-12-11T04:32:25;40.50;;;36.50;;
22881;SDS011;11608;50.894;5.296;2022-12-11T04:34:51;40.50;;;36.47;;
22881;SDS011;11608;50.894;5.296;2022-12-11T04:37:17;38.43;;;34.37;;
22881;SDS011;11608;50.894;5.296;2022-12-11T04:39:43;40.70;;;36.07;;
22881;SDS011;11608;50.894;5.296;2022-12-11T04:42:09;39.63;;;35.50;;
22881;SDS011;11608;50.894;5.296;2022-12-11T04:44:35;39.83;;;35.57;;
22881;SDS011;11608;50.894;5.296;2022-12-11T04:47:01;39.13;;;34.97;;
22881;SDS011;11608;50.894;5.296;2022-12-11T04:49:27;39.80;;;35.87;;
22881;SDS011;11608;50.894;5.296;2022-12-11T04:51:53;39.07;;;35.07;;
22881;SDS011;11608;50.894;5.296;2022-12-11T04:54:19;39.50;;;35.40;;
22881;SDS011;11608;50.894;5.296;2022-12-11T04:56:45;40.30;;;35.90;;
22881;SDS011;11608;50.894;5.296;2022-12-11T04:59:11;40.67;;;36.57;;
22881;SDS011;11608;50.894;5.296;2022-12-11T05:01:37;40.07;;;35.83;;
22881;SDS011;11608;50.894;5.296;2022-12-11T05:04:05;37.10;;;33.27;;
22881;SDS011;11608;50.894;5.296;2022-12-11T05:06:31;38.77;;;34.83;;
22881;SDS011;11608;50.894;5.296;2022-12-11T05:08:57;39.53;;;35.50;;
22881;SDS011;11608;50.894;5.296;2022-12-11T05:11:23;38.63;;;34.93;;
22881;SDS011;11608;50.894;5.296;2022-12-11T05:13:49;39.10;;;35.23;;
22881;SDS011;11608;50.894;5.296;2022-12-11T05:16:16;38.20;;;34.40;;
22881;SDS011;11608;50.894;5.296;2022-12-11T05:18:42;40.57;;;36.37;;
22881;SDS011;11608;50.894;5.296;2022-12-11T05:21:10;40.87;;;36.70;;
22881;SDS011;11608;50.894;5.296;2022-12-11T05:23:37;40.47;;;36.53;;
22881;SDS011;11608;50.894;5.296;2022-12-11T05:26:04;42.53;;;38.13;;
22881;SDS011;11608;50.894;5.296;2022-12-11T05:28:31;39.90;;;36.10;;
22881;SDS011;11608;50.894;5.296;2022-12-11T05:31:02;39.50;;;35.60;;
22881;SDS011;11608;50.894;5.296;2022-12-11T05:33:29;38.17;;;34.37;;
22881;SDS011;11608;50.894;5.296;2022-12-11T05:35:55;39.50;;;35.70;;
22881;SDS011;11608;50.894;5.296;2022-12-11T05:38:21;40.27;;;36.07;;
22881;SDS011;11608;50.894;5.296;2022-12-11T05:40:57;40.57;;;36.57;;
22881;SDS011;11608;50.894;5.296;2022-12-11T05:43:23;36.80;;;33.30;;
22881;SDS011;11608;50.894;5.296;2022-12-11T05:45:49;40.20;;;36.30;;
22881;SDS011;11608;50.894;5.296;2022-12-11T05:48:15;38.73;;;34.93;;
22881;SDS011;11608;50.894;5.296;2022-12-11T05:50:41;40.57;;;36.33;;
22881;SDS011;11608;50.894;5.296;2022-12-11T05:53:07;40.30;;;36.47;;
22881;SDS011;11608;50.894;5.296;2022-12-11T05:55:34;38.83;;;34.97;;
22881;SDS011;11608;50.894;5.296;2022-12-11T05:58:00;40.17;;;36.27;;
22881;SDS011;11608;50.894;5.296;2022-12-11T06:00:26;39.03;;;35.40;;
22881;SDS011;11608;50.894;5.296;2022-12-11T06:02:54;36.97;;;33.47;;
22881;SDS011;11608;50.894;5.296;2022-12-11T06:05:20;36.70;;;33.30;;
22881;SDS011;11608;50.894;5.296;2022-12-11T06:07:46;38.63;;;35.13;;
22881;SDS011;11608;50.894;5.296;2022-12-11T06:10:12;39.70;;;35.90;;
22881;SDS011;11608;50.894;5.296;2022-12-11T06:12:38;38.47;;;34.90;;
22881;SDS011;11608;50.894;5.296;2022-12-11T06:15:05;38.03;;;34.47;;
22881;SDS011;11608;50.894;5.296;2022-12-11T06:17:32;37.67;;;34.03;;
22881;SDS011;11608;50.894;5.296;2022-12-11T06:19:58;37.47;;;34.17;;
22881;SDS011;11608;50.894;5.296;2022-12-11T06:22:24;36.73;;;33.20;;
22881;SDS011;11608;50.894;5.296;2022-12-11T06:24:50;36.17;;;32.87;;
22881;SDS011;11608;50.894;5.296;2022-12-11T06:27:16;36.20;;;32.80;;
22881;SDS011;11608;50.894;5.296;2022-12-11T06:29:43;38.17;;;34.57;;
22881;SDS011;11608;50.894;5.296;2022-12-11T06:32:09;35.80;;;32.53;;
22881;SDS011;11608;50.894;5.296;2022-12-11T06:34:35;36.27;;;32.97;;
22881;SDS011;11608;50.894;5.296;2022-12-11T06:37:01;34.83;;;31.47;;
22881;SDS011;11608;50.894;5.296;2022-12-11T06:39:27;36.43;;;33.03;;
22881;SDS011;11608;50.894;5.296;2022-12-11T06:41:53;37.27;;;33.77;;
22881;SDS011;11608;50.894;5.296;2022-12-11T06:44:22;36.00;;;32.67;;
22881;SDS011;11608;50.894;5.296;2022-12-11T06:46:48;37.60;;;33.87;;
22881;SDS011;11608;50.894;5.296;2022-12-11T06:49:14;35.10;;;31.47;;
22881;SDS011;11608;50.894;5.296;2022-12-11T06:51:41;35.90;;;32.30;;
22881;SDS011;11608;50.894;5.296;2022-12-11T06:54:07;34.53;;;31.00;;
22881;SDS011;11608;50.894;5.296;2022-12-11T06:56:33;35.57;;;32.10;;
22881;SDS011;11608;50.894;5.296;2022-12-11T06:59:00;35.87;;;32.27;;
22881;SDS011;11608;50.894;5.296;2022-12-11T07:01:27;36.20;;;32.83;;
22881;SDS011;11608;50.894;5.296;2022-12-11T07:03:53;36.90;;;33.50;;
22881;SDS011;11608;50.894;5.296;2022-12-11T07:06:20;36.07;;;32.60;;
22881;SDS011;11608;50.894;5.296;2022-12-11T07:08:46;36.90;;;33.13;;
22881;SDS011;11608;50.894;5.296;2022-12-11T07:11:12;35.33;;;31.73;;
22881;SDS011;11608;50.894;5.296;2022-12-11T07:13:39;38.37;;;34.57;;
22881;SDS011;11608;50.894;5.296;2022-12-11T07:16:08;36.70;;;32.97;;
22881;SDS011;11608;50.894;5.296;2022-12-11T07:18:36;36.47;;;32.90;;
22881;SDS011;11608;50.894;5.296;2022-12-11T07:21:03;36.77;;;33.17;;
22881;SDS011;11608;50.894;5.296;2022-12-11T07:23:29;36.17;;;32.63;;
22881;SDS011;11608;50.894;5.296;2022-12-11T07:25:55;36.33;;;32.73;;
22881;SDS011;11608;50.894;5.296;2022-12-11T07:28:22;37.37;;;33.93;;
22881;SDS011;11608;50.894;5.296;2022-12-11T07:30:48;37.00;;;33.33;;
22881;SDS011;11608;50.894;5.296;2022-12-11T07:33:14;36.97;;;33.43;;
22881;SDS011;11608;50.894;5.296;2022-12-11T07:35:40;35.43;;;31.97;;
22881;SDS011;11608;50.894;5.296;2022-12-11T07:38:06;37.00;;;33.00;;
22881;SDS011;11608;50.894;5.296;2022-12-11T07:40:33;36.27;;;32.37;;
22881;SDS011;11608;50.894;5.296;2022-12-11T07:42:59;38.20;;;34.23;;
22881;SDS011;11608;50.894;5.296;2022-12-11T07:45:25;37.03;;;33.13;;
22881;SDS011;11608;50.894;5.296;2022-12-11T07:47:51;39.97;;;33.67;;
22881;SDS011;11608;50.894;5.296;2022-12-11T07:50:17;37.03;;;31.77;;
22881;SDS011;11608;50.894;5.296;2022-12-11T07:52:43;39.03;;;33.50;;
22881;SDS011;11608;50.894;5.296;2022-12-11T07:55:13;37.70;;;33.73;;
22881;SDS011;11608;50.894;5.296;2022-12-11T07:57:39;40.57;;;32.07;;
22881;SDS011;11608;50.894;5.296;2022-12-11T08:00:05;34.03;;;30.83;;
22881;SDS011;11608;50.894;5.296;2022-12-11T08:02:31;34.40;;;31.00;;
22881;SDS011;11608;50.894;5.296;2022-12-11T08:04:57;34.50;;;30.23;;
22881;SDS011;11608;50.894;5.296;2022-12-11T08:07:23;34.93;;;30.70;;
22881;SDS011;11608;50.894;5.296;2022-12-11T08:09:49;51.87;;;42.17;;
22881;SDS011;11608;50.894;5.296;2022-12-11T08:12:15;35.77;;;32.13;;
22881;SDS011;11608;50.894;5.296;2022-12-11T08:14:41;37.33;;;33.53;;
22881;SDS011;11608;50.894;5.296;2022-12-11T08:17:07;36.57;;;32.97;;
22881;SDS011;11608;50.894;5.296;2022-12-11T08:19:33;37.63;;;33.93;;
22881;SDS011;11608;50.894;5.296;2022-12-11T08:21:59;36.33;;;32.17;;
22881;SDS011;11608;50.894;5.296;2022-12-11T08:24:25;36.33;;;32.63;;
22881;SDS011;11608;50.894;5.296;2022-12-11T08:26:51;35.40;;;31.67;;
22881;SDS011;11608;50.894;5.296;2022-12-11T08:29:17;36.27;;;32.57;;
22881;SDS011;11608;50.894;5.296;2022-12-11T08:31:43;35.23;;;31.43;;
22881;SDS011;11608;50.894;5.296;2022-12-11T08:34:10;34.37;;;30.80;;
22881;SDS011;11608;50.894;5.296;2022-12-11T08:36:37;35.40;;;31.70;;
22881;SDS011;11608;50.894;5.296;2022-12-11T08:39:04;33.10;;;29.90;;
22881;SDS011;11608;50.894;5.296;2022-12-11T08:41:33;34.77;;;31.07;;
22881;SDS011;11608;50.894;5.296;2022-12-11T08:43:59;35.87;;;32.27;;
22881;SDS011;11608;50.894;5.296;2022-12-11T08:46:26;34.33;;;30.73;;
22881;SDS011;11608;50.894;5.296;2022-12-11T08:48:52;35.43;;;31.67;;
22881;SDS011;11608;50.894;5.296;2022-12-11T08:51:21;32.97;;;29.77;;
22881;SDS011;11608;50.894;5.296;2022-12-11T08:53:48;35.20;;;31.90;;
22881;SDS011;11608;50.894;5.296;2022-12-11T08:56:15;34.67;;;31.37;;
22881;SDS011;11608;50.894;5.296;2022-12-11T08:58:42;33.10;;;29.90;;
22881;SDS011;11608;50.894;5.296;2022-12-11T09:01:10;35.10;;;31.73;;
22881;SDS011;11608;50.894;5.296;2022-12-11T09:03:36;35.83;;;32.13;;
22881;SDS011;11608;50.894;5.296;2022-12-11T09:06:03;34.33;;;31.13;;
22881;SDS011;11608;50.894;5.296;2022-12-11T09:08:30;34.20;;;31.00;;
22881;SDS011;11608;50.894;5.296;2022-12-11T09:11:00;35.00;;;31.57;;
22881;SDS011;11608;50.894;5.296;2022-12-11T09:13:26;33.70;;;30.30;;
22881;SDS011;11608;50.894;5.296;2022-12-11T09:15:52;33.40;;;30.03;;
22881;SDS011;11608;50.894;5.296;2022-12-11T09:18:18;33.93;;;30.10;;
22881;SDS011;11608;50.894;5.296;2022-12-11T09:20:44;32.33;;;28.93;;
22881;SDS011;11608;50.894;5.296;2022-12-11T09:23:10;33.60;;;30.13;;
22881;SDS011;11608;50.894;5.296;2022-12-11T09:25:38;32.23;;;29.23;;
22881;SDS011;11608;50.894;5.296;2022-12-11T09:28:04;32.80;;;29.60;;
22881;SDS011;11608;50.894;5.296;2022-12-11T09:30:30;33.43;;;30.27;;
22881;SDS011;11608;50.894;5.296;2022-12-11T09:32:56;31.93;;;29.03;;
22881;SDS011;11608;50.894;5.296;2022-12-11T09:35:22;31.47;;;28.57;;
22881;SDS011;11608;50.894;5.296;2022-12-11T09:37:48;32.57;;;29.33;;
22881;SDS011;11608;50.894;5.296;2022-12-11T09:40:14;32.43;;;29.33;;
22881;SDS011;11608;50.894;5.296;2022-12-11T09:42:50;32.70;;;29.60;;
22881;SDS011;11608;50.894;5.296;2022-12-11T09:45:17;34.17;;;30.97;;
22881;SDS011;11608;50.894;5.296;2022-12-11T09:47:47;33.40;;;30.37;;
22881;SDS011;11608;50.894;5.296;2022-12-11T09:50:17;32.80;;;29.90;;
22881;SDS011;11608;50.894;5.296;2022-12-11T09:52:58;34.50;;;31.50;;
22881;SDS011;11608;50.894;5.296;2022-12-11T09:55:31;31.83;;;29.03;;
22881;SDS011;11608;50.894;5.296;2022-12-11T10:00:48;32.20;;;29.17;;
22881;SDS011;11608;50.894;5.296;2022-12-11T10:03:30;33.83;;;30.33;;
22881;SDS011;11608;50.894;5.296;2022-12-11T10:06:17;31.10;;;28.40;;
22881;SDS011;11608;50.894;5.296;2022-12-11T10:14:07;32.90;;;29.60;;
22881;SDS011;11608;50.894;5.296;2022-12-11T10:16:49;31.03;;;28.03;;
22881;SDS011;11608;50.894;5.296;2022-12-11T10:19:20;31.60;;;28.63;;
22881;SDS011;11608;50.894;5.296;2022-12-11T10:21:47;30.77;;;27.97;;
22881;SDS011;11608;50.894;5.296;2022-12-11T10:26:46;31.30;;;28.07;;
22881;SDS011;11608;50.894;5.296;2022-12-11T10:29:13;31.10;;;28.07;;
22881;SDS011;11608;50.894;5.296;2022-12-11T10:31:44;30.17;;;27.30;;
22881;SDS011;11608;50.894;5.296;2022-12-11T10:34:14;30.93;;;27.87;;
22881;SDS011;11608;50.894;5.296;2022-12-11T10:36:44;30.73;;;27.90;;
22881;SDS011;11608;50.894;5.296;2022-12-11T10:39:20;29.60;;;26.90;;
22881;SDS011;11608;50.894;5.296;2022-12-11T10:41:47;31.93;;;28.70;;
22881;SDS011;11608;50.894;5.296;2022-12-11T10:44:17;33.23;;;29.97;;
22881;SDS011;11608;50.894;5.296;2022-12-11T10:46:47;32.33;;;29.03;;
22881;SDS011;11608;50.894;5.296;2022-12-11T10:49:24;30.50;;;27.77;;
22881;SDS011;11608;50.894;5.296;2022-12-11T10:51:51;30.47;;;27.67;;
22881;SDS011;11608;50.894;5.296;2022-12-11T10:56:53;32.50;;;29.50;;
22881;SDS011;11608;50.894;5.296;2022-12-11T11:01:48;32.07;;;28.97;;
22881;SDS011;11608;50.894;5.296;2022-12-11T11:04:15;34.37;;;29.23;;
22881;SDS011;11608;50.894;5.296;2022-12-11T11:06:44;32.10;;;28.90;;
22881;SDS011;11608;50.894;5.296;2022-12-11T11:12:19;31.77;;;28.60;;
22881;SDS011;11608;50.894;5.296;2022-12-11T11:14:45;32.43;;;29.20;;
22881;SDS011;11608;50.894;5.296;2022-12-11T11:17:15;33.93;;;30.23;;
22881;SDS011;11608;50.894;5.296;2022-12-11T11:19:44;31.70;;;28.80;;
22881;SDS011;11608;50.894;5.296;2022-12-11T11:22:14;31.97;;;28.70;;
22881;SDS011;11608;50.894;5.296;2022-12-11T11:24:45;31.67;;;28.60;;
22881;SDS011;11608;50.894;5.296;2022-12-11T11:29:52;32.27;;;29.20;;
22881;SDS011;11608;50.894;5.296;2022-12-11T11:32:21;32.10;;;29.20;;
22881;SDS011;11608;50.894;5.296;2022-12-11T11:34:48;31.20;;;28.27;;
22881;SDS011;11608;50.894;5.296;2022-12-11T11:37:21;32.57;;;29.57;;
22881;SDS011;11608;50.894;5.296;2022-12-11T11:39:47;33.50;;;30.37;;
22881;SDS011;11608;50.894;5.296;2022-12-11T11:42:19;31.37;;;28.40;;
22881;SDS011;11608;50.894;5.296;2022-12-11T11:44:59;31.33;;;28.23;;
22881;SDS011;11608;50.894;5.296;2022-12-11T11:47:29;33.77;;;30.03;;
22881;SDS011;11608;50.894;5.296;2022-12-11T11:50:05;32.53;;;29.30;;
22881;SDS011;11608;50.894;5.296;2022-12-11T11:55:18;32.97;;;29.43;;
22881;SDS011;11608;50.894;5.296;2022-12-11T12:00:22;32.10;;;29.00;;
22881;SDS011;11608;50.894;5.296;2022-12-11T12:02:49;32.03;;;28.70;;
22881;SDS011;11608;50.894;5.296;2022-12-11T12:05:20;31.67;;;28.57;;
22881;SDS011;11608;50.894;5.296;2022-12-11T12:08:04;31.40;;;28.17;;
22881;SDS011;11608;50.894;5.296;2022-12-11T12:10:33;31.60;;;28.60;;
22881;SDS011;11608;50.894;5.296;2022-12-11T12:13:19;32.00;;;28.83;;
22881;SDS011;11608;50.894;5.296;2022-12-11T12:15:53;33.37;;;29.90;;
22881;SDS011;11608;50.894;5.296;2022-12-11T12:18:23;32.20;;;28.90;;
22881;SDS011;11608;50.894;5.296;2022-12-11T12:20:58;32.87;;;29.40;;
22881;SDS011;11608;50.894;5.296;2022-12-11T12:23:47;30.83;;;27.80;;
22881;SDS011;11608;50.894;5.296;2022-12-11T12:26:27;30.40;;;27.40;;
22881;SDS011;11608;50.894;5.296;2022-12-11T12:29:22;31.70;;;28.40;;
22881;SDS011;11608;50.894;5.296;2022-12-11T12:41:53;31.87;;;28.67;;
22881;SDS011;11608;50.894;5.296;2022-12-11T12:44:21;30.17;;;27.20;;
22881;SDS011;11608;50.894;5.296;2022-12-11T12:49:34;32.70;;;29.50;;
22881;SDS011;11608;50.894;5.296;2022-12-11T12:52:01;31.43;;;28.27;;
22881;SDS011;11608;50.894;5.296;2022-12-11T12:54:29;33.73;;;29.70;;
22881;SDS011;11608;50.894;5.296;2022-12-11T12:56:56;31.87;;;28.67;;
22881;SDS011;11608;50.894;5.296;2022-12-11T12:59:24;32.37;;;29.20;;
22881;SDS011;11608;50.894;5.296;2022-12-11T13:01:52;32.10;;;28.80;;
22881;SDS011;11608;50.894;5.296;2022-12-11T13:06:55;31.73;;;28.33;;
22881;SDS011;11608;50.894;5.296;2022-12-11T13:09:22;33.43;;;29.83;;
22881;SDS011;11608;50.894;5.296;2022-12-11T13:11:50;32.77;;;29.53;;
22881;SDS011;11608;50.894;5.296;2022-12-11T13:14:31;32.13;;;29.03;;
22881;SDS011;11608;50.894;5.296;2022-12-11T13:19:42;31.30;;;28.50;;
22881;SDS011;11608;50.894;5.296;2022-12-11T13:27:23;32.13;;;29.10;;
22881;SDS011;11608;50.894;5.296;2022-12-11T13:29:49;30.10;;;27.30;;
22881;SDS011;11608;50.894;5.296;2022-12-11T13:34:43;32.33;;;29.13;;
22881;SDS011;11608;50.894;5.296;2022-12-11T13:37:29;30.17;;;27.37;;
22881;SDS011;11608;50.894;5.296;2022-12-11T13:39:59;30.00;;;27.30;;
22881;SDS011;11608;50.894;5.296;2022-12-11T13:42:30;31.33;;;28.03;;
22881;SDS011;11608;50.894;5.296;2022-12-11T13:44:57;31.87;;;28.67;;
22881;SDS011;11608;50.894;5.296;2022-12-11T13:47:23;30.27;;;27.27;;
22881;SDS011;11608;50.894;5.296;2022-12-11T13:49:52;31.70;;;28.57;;
22881;SDS011;11608;50.894;5.296;2022-12-11T13:52:20;31.73;;;28.50;;
22881;SDS011;11608;50.894;5.296;2022-12-11T13:54:49;33.07;;;29.70;;
22881;SDS011;11608;50.894;5.296;2022-12-11T13:57:16;30.87;;;27.73;;
22881;SDS011;11608;50.894;5.296;2022-12-11T13:59:55;33.40;;;29.50;;
22881;SDS011;11608;50.894;5.296;2022-12-11T14:02:28;32.07;;;28.73;;
22881;SDS011;11608;50.894;5.296;2022-12-11T14:04:58;31.03;;;28.00;;
22881;SDS011;11608;50.894;5.296;2022-12-11T14:07:26;31.57;;;28.43;;
22881;SDS011;11608;50.894;5.296;2022-12-11T14:09:53;31.47;;;28.43;;
22881;SDS011;11608;50.894;5.296;2022-12-11T14:12:21;33.03;;;29.53;;
22881;SDS011;11608;50.894;5.296;2022-12-11T14:14:51;32.20;;;28.93;;
22881;SDS011;11608;50.894;5.296;2022-12-11T14:17:25;32.63;;;29.43;;
22881;SDS011;11608;50.894;5.296;2022-12-11T14:19:52;32.87;;;29.53;;
22881;SDS011;11608;50.894;5.296;2022-12-11T14:22:20;32.50;;;29.20;;
22881;SDS011;11608;50.894;5.296;2022-12-11T14:24:50;33.47;;;29.90;;
22881;SDS011;11608;50.894;5.296;2022-12-11T14:27:17;32.63;;;29.17;;
22881;SDS011;11608;50.894;5.296;2022-12-11T14:29:43;33.73;;;30.10;;
22881;SDS011;11608;50.894;5.296;2022-12-11T14:32:15;33.60;;;30.00;;
22881;SDS011;11608;50.894;5.296;2022-12-11T14:34:43;34.50;;;30.70;;
22881;SDS011;11608;50.894;5.296;2022-12-11T14:37:10;44.80;;;33.83;;
22881;SDS011;11608;50.894;5.296;2022-12-11T14:42:14;40.70;;;33.73;;
22881;SDS011;11608;50.894;5.296;2022-12-11T14:44:49;36.63;;;30.53;;
22881;SDS011;11608;50.894;5.296;2022-12-11T14:47:21;30.93;;;26.87;;
22881;SDS011;11608;50.894;5.296;2022-12-11T14:52:27;30.97;;;27.77;;
22881;SDS011;11608;50.894;5.296;2022-12-11T14:54:55;32.13;;;28.83;;
22881;SDS011;11608;50.894;5.296;2022-12-11T14:57:25;31.70;;;28.50;;
22881;SDS011;11608;50.894;5.296;2022-12-11T14:59:52;31.40;;;28.23;;
22881;SDS011;11608;50.894;5.296;2022-12-11T15:02:23;30.43;;;27.37;;
22881;SDS011;11608;50.894;5.296;2022-12-11T15:07:51;33.00;;;29.60;;
22881;SDS011;11608;50.894;5.296;2022-12-11T15:10:37;35.07;;;29.27;;
22881;SDS011;11608;50.894;5.296;2022-12-11T15:13:05;30.80;;;27.50;;
22881;SDS011;11608;50.894;5.296;2022-12-11T15:15:36;33.23;;;29.70;;
22881;SDS011;11608;50.894;5.296;2022-12-11T15:18:05;31.43;;;28.33;;
22881;SDS011;11608;50.894;5.296;2022-12-11T15:20:32;33.40;;;29.27;;
22881;SDS011;11608;50.894;5.296;2022-12-11T15:22:59;32.90;;;28.80;;
22881;SDS011;11608;50.894;5.296;2022-12-11T15:25:27;33.10;;;29.70;;
22881;SDS011;11608;50.894;5.296;2022-12-11T15:27:56;42.27;;;31.23;;
22881;SDS011;11608;50.894;5.296;2022-12-11T15:35:37;31.60;;;28.30;;
22881;SDS011;11608;50.894;5.296;2022-12-11T15:38:03;34.93;;;28.93;;
22881;SDS011;11608;50.894;5.296;2022-12-11T15:40:29;32.17;;;28.97;;
22881;SDS011;11608;50.894;5.296;2022-12-11T15:42:55;32.10;;;28.93;;
22881;SDS011;11608;50.894;5.296;2022-12-11T15:45:24;32.80;;;29.20;;
22881;SDS011;11608;50.894;5.296;2022-12-11T15:47:52;33.23;;;29.73;;
22881;SDS011;11608;50.894;5.296;2022-12-11T15:50:19;32.80;;;29.50;;